Other Surface Observations
Issued by NWS Missoula, MT

Home | Current Version | Previous Version | Text Only | Print | Product List | Glossary On
Versions: 1 2 3 4 5 6 7 8 9 10 11 12 13 14 15 16 17 18 19 20 21 22 23 24 25 26 27 28 29 30 31 32 33 34 35 36 37 38 39 40 41 42 43 44 45 46 47 48 49 50
000
SXUS55 KMSO 191403
OSOMSO
MONTANA AWOS SUMMARY
NATIONAL WEATHER SERVICE MISSOULA MT
703 AM MST SUN APR 19 2015

Montana AWOS Reports

MALTA       |KM75 191355Z AUTO 23008KT 40SM M01/M06 A3019 RMK AO1 T10101060
SCOBEY      |K9S2 191355Z AUTO 31016G24KT 40SM 03/M02 A3006 RMK AO1 T00331016
EKALAKA     |K97M 191355Z AUTO 29015G19KT 40SM 02/M06 A3007 RMK AO1 T00221055
LAUREL      |K6S8 191355Z AUTO 00000KT 40SM 01/M04 A3020 RMK AO1 T00111038
TWIN BRIDGES|K7S1 191355Z AUTO 13004KT 40SM M01/M06 A3020 RMK AO1 T10101060
ROUNDUP     |KRPX 191355Z AUTO 00000KT 40SM 02/M07 A3014 RMK AO1 T00171066




USA.gov is the U.S. government's official web portal to all federal, state and local government web resources and services.